Nashville, Tennessee
Traffic Map
Current Weather Conditions
Nashville, Tennessee
Few Clouds
Few Clouds
70°
Feels Like: 70°
Wind Chill: 70° Ceiling: Unl
Heat Index: 70° Visibility: 10mi
Dew Point: 40° Wind: 13mph
Humidity: 33% Direction: 360° (N)
Pressure: 30.03in Gusts: 20mph
Raw Report DataKBNA 061653Z 36011G17KT 10SM FEW055 21/04 A3003 RMK AO2 SLP167 T02110044
Traffic Incident Summary
Active as of:
Severity:
Category:
InformationThere was an issue retrieving the traffic information for this location. Please try a different location or try again shortly.
Advertisements
Track Severe Weather on mobile